createdAt,value
2023-03-22T00:02:16.422Z,70.88
2023-03-22T00:04:44.493Z,70.74
2023-03-22T00:07:12.550Z,70.83
2023-03-22T00:09:40.538Z,70.71
2023-03-22T00:12:08.492Z,71.07
2023-03-22T00:14:36.498Z,71.14
2023-03-22T00:17:04.512Z,71.03
2023-03-22T00:19:33.870Z,70.74
2023-03-22T00:22:02.066Z,71.43
2023-03-22T00:24:29.868Z,71.04
2023-03-22T00:26:58.636Z,71.14
2023-03-22T00:29:26.575Z,71.10
2023-03-22T00:31:55.897Z,71.21
2023-03-22T00:34:23.785Z,71.45
2023-03-22T00:36:51.937Z,71.53
2023-03-22T00:39:19.962Z,71.66
2023-03-22T00:41:48.121Z,71.69
2023-03-22T00:44:15.949Z,71.92
2023-03-22T00:46:43.811Z,72.63
2023-03-22T00:49:12.368Z,72.06
2023-03-22T00:51:40.358Z,71.87
2023-03-22T00:54:08.233Z,71.78
2023-03-22T00:56:37.624Z,72.87
2023-03-22T00:59:14.400Z,72.25
2023-03-22T01:01:43.800Z,72.05
2023-03-22T01:04:18.198Z,71.77
2023-03-22T01:06:47.293Z,71.74
2023-03-22T01:09:15.496Z,71.94
2023-03-22T01:11:43.663Z,71.63
2023-03-22T01:14:14.182Z,72.41
2023-03-22T01:16:42.387Z,72.12
2023-03-22T01:19:10.876Z,71.78
2023-03-22T01:21:39.462Z,71.91
2023-03-22T01:24:08.200Z,71.80
2023-03-22T01:26:41.891Z,72.03
2023-03-22T01:29:18.344Z,71.72
2023-03-22T01:31:48.179Z,72.23
2023-03-22T01:34:25.009Z,72.90
2023-03-22T01:36:58.058Z,72.67
2023-03-22T01:39:32.509Z,73.02
2023-03-22T01:42:16.460Z,72.99
2023-03-22T01:45:07.300Z,72.64
2023-03-22T01:47:38.010Z,72.57
2023-03-22T01:50:22.531Z,72.53
2023-03-22T01:53:05.106Z,72.56
2023-03-22T01:55:47.849Z,72.70
2023-03-22T01:58:36.696Z,72.91
2023-03-22T02:01:17.687Z,74.51
2023-03-22T02:03:59.056Z,73.47
2023-03-22T02:06:32.912Z,73.26
2023-03-22T02:09:12.570Z,73.01
2023-03-22T02:11:50.308Z,73.03
2023-03-22T02:14:57.670Z,73.06
2023-03-22T02:18:16.825Z,72.48
2023-03-22T02:21:30.870Z,72.58
2023-03-22T02:24:33.550Z,72.31
2023-03-22T02:27:24.012Z,72.18
2023-03-22T02:30:32.986Z,71.91
2023-03-22T02:33:41.616Z,71.92
2023-03-22T02:36:44.393Z,71.92
2023-03-22T02:39:34.933Z,72.35
2023-03-22T02:42:25.803Z,74.24
2023-03-22T02:45:03.623Z,74.29
2023-03-22T02:48:11.389Z,73.30
2023-03-22T02:50:53.775Z,74.50
2023-03-22T02:53:31.944Z,73.63
2023-03-22T02:56:05.802Z,73.82
2023-03-22T02:58:47.825Z,76.48
2023-03-22T03:01:24.591Z,76.10
2023-03-22T03:03:57.511Z,75.11
2023-03-22T03:06:32.486Z,77.04
2023-03-22T03:09:05.558Z,75.41
2023-03-22T03:11:34.664Z,75.82
2023-03-22T03:14:05.027Z,75.11
2023-03-22T03:16:36.858Z,75.22
2023-03-22T03:19:26.564Z,75.20
2023-03-22T03:22:07.028Z,75.03
2023-03-22T03:24:54.548Z,75.88
2023-03-22T03:27:28.734Z,75.68
2023-03-22T03:30:05.440Z,75.53
2023-03-22T03:32:42.266Z,75.32
2023-03-22T03:35:23.030Z,75.44
2023-03-22T03:37:59.148Z,75.65
2023-03-22T03:40:33.374Z,76.09
2023-03-22T03:43:05.094Z,76.49
2023-03-22T03:45:36.100Z,76.14
2023-03-22T03:48:11.493Z,75.86
2023-03-22T03:50:40.095Z,75.62
2023-03-22T03:53:08.597Z,75.58
2023-03-22T03:55:37.700Z,75.38
2023-03-22T03:58:05.964Z,75.92
2023-03-22T04:00:34.933Z,75.43
2023-03-22T04:03:14.617Z,75.00
2023-03-22T04:05:55.975Z,74.95
2023-03-22T04:08:24.187Z,74.64
2023-03-22T04:10:54.277Z,74.58
2023-03-22T04:13:24.619Z,74.61
2023-03-22T04:15:57.647Z,74.68
2023-03-22T04:18:29.904Z,74.32
2023-03-22T04:20:59.361Z,74.37
2023-03-22T04:23:28.695Z,76.05
2023-03-22T04:25:59.564Z,78.69
2023-03-22T04:28:35.250Z,78.43
2023-03-22T04:31:05.681Z,79.80
2023-03-22T04:34:18.602Z,79.75
2023-03-22T04:37:43.515Z,79.33
2023-03-22T04:48:27.610Z,77.53
2023-03-22T04:52:10.463Z,77.49
2023-03-22T04:56:03.722Z,76.97
2023-03-22T04:59:54.591Z,76.63
2023-03-22T05:03:45.410Z,76.34
2023-03-22T05:07:33.563Z,76.04
2023-03-22T05:14:43.682Z,75.78
2023-03-22T05:18:17.518Z,76.08
2023-03-22T05:21:44.945Z,75.80
2023-03-22T05:25:21.606Z,75.85
2023-03-22T05:32:37.272Z,76.06
2023-03-22T05:36:08.580Z,75.54
2023-03-22T05:39:57.500Z,75.26
2023-03-22T05:43:29.619Z,74.90
2023-03-22T05:47:12.550Z,74.64
2023-03-22T05:50:50.680Z,74.52
2023-03-22T05:54:27.761Z,74.18
2023-03-22T05:58:08.629Z,73.70
2023-03-22T06:01:38.603Z,73.80
2023-03-22T06:05:23.555Z,73.61
2023-03-22T06:09:17.541Z,73.56
2023-03-22T06:13:05.130Z,73.33
2023-03-22T06:16:52.637Z,73.31
2023-03-22T06:20:25.632Z,73.36
2023-03-22T06:24:04.633Z,73.38
2023-03-22T06:28:06.394Z,72.90
2023-03-22T06:31:39.629Z,72.86
2023-03-22T06:35:16.661Z,72.22
2023-03-22T06:39:03.396Z,71.80
2023-03-22T06:42:49.503Z,71.15
2023-03-22T06:46:21.676Z,70.40
2023-03-22T06:49:58.588Z,70.71
2023-03-22T06:53:48.596Z,69.82
2023-03-22T06:56:50.037Z,69.19
2023-03-22T06:59:19.617Z,68.46
2023-03-22T07:01:57.024Z,68.67
2023-03-22T07:04:25.889Z,68.87
2023-03-22T07:06:57.421Z,67.93
2023-03-22T07:09:27.441Z,67.73
2023-03-22T07:12:06.999Z,67.22
2023-03-22T07:14:43.070Z,67.08
2023-03-22T07:17:53.792Z,66.19
2023-03-22T07:20:24.406Z,66.17
2023-03-22T07:23:02.828Z,66.01
2023-03-22T07:25:43.515Z,66.70
2023-03-22T07:28:23.856Z,66.54
2023-03-22T07:31:38.974Z,65.88
2023-03-22T07:38:06.260Z,65.37
2023-03-22T07:40:39.217Z,64.96
2023-03-22T07:43:13.180Z,64.73
2023-03-22T07:46:16.746Z,65.51
2023-03-22T07:49:10.883Z,64.63
2023-03-22T07:52:01.769Z,64.29
2023-03-22T07:54:37.260Z,64.50
2023-03-22T07:57:08.708Z,64.52
2023-03-22T07:59:43.550Z,64.58
2023-03-22T08:02:14.099Z,64.71
2023-03-22T08:10:04.922Z,65.88
2023-03-22T08:16:19.970Z,66.09
2023-03-22T08:23:52.938Z,66.60
2023-03-22T08:27:26.816Z,66.82
2023-03-22T08:30:54.400Z,66.61
2023-03-22T08:34:11.053Z,65.61
2023-03-22T08:36:45.858Z,63.56
2023-03-22T08:44:31.439Z,62.51
2023-03-22T08:47:25.560Z,62.24
2023-03-22T08:50:49.855Z,62.44
2023-03-22T08:54:36.774Z,61.76
2023-03-22T09:02:04.616Z,61.32
2023-03-22T09:05:05.235Z,61.95
2023-03-22T09:08:00.614Z,60.64
2023-03-22T09:17:14.032Z,59.14
2023-03-22T09:23:39.408Z,60.12
2023-03-22T09:23:40.374Z,59.86
2023-03-22T09:26:32.614Z,59.38
2023-03-22T09:29:36.500Z,56.63
2023-03-22T10:10:11.869Z,49.83
2023-03-22T10:13:47.768Z,50.40
2023-03-22T10:16:43.175Z,49.93
2023-03-22T10:20:05.663Z,48.99
2023-03-22T10:26:09.805Z,50.84
2023-03-22T10:30:09.551Z,50.85
2023-03-22T10:33:23.079Z,49.04
2023-03-22T10:36:16.222Z,48.75
2023-03-22T10:39:15.173Z,47.73
2023-03-22T10:41:50.110Z,47.08
2023-03-22T10:44:20.030Z,46.62
2023-03-22T10:47:09.267Z,47.13
2023-03-22T10:49:43.900Z,46.47
2023-03-22T10:52:31.436Z,46.18
2023-03-22T10:55:03.769Z,46.08
2023-03-22T10:57:32.575Z,45.75
2023-03-22T11:00:12.123Z,44.98
2023-03-22T11:03:10.878Z,45.08
2023-03-22T11:05:41.483Z,45.59
2023-03-22T11:08:15.560Z,45.09
2023-03-22T11:13:58.263Z,44.52
2023-03-22T11:16:31.649Z,45.17
2023-03-22T11:19:22.839Z,44.99
2023-03-22T11:21:55.656Z,44.10
2023-03-22T11:24:27.741Z,43.23
2023-03-22T11:27:31.404Z,42.87
2023-03-22T11:30:15.218Z,42.63
2023-03-22T11:33:27.974Z,41.80
2023-03-22T11:36:00.353Z,41.78
2023-03-22T11:38:36.855Z,41.46
2023-03-22T11:41:22.513Z,41.07
2023-03-22T11:44:01.883Z,39.68
2023-03-22T11:46:31.010Z,37.22
2023-03-22T11:49:06.139Z,36.22
2023-03-22T11:51:38.055Z,36.14
2023-03-22T11:54:26.519Z,35.68
2023-03-22T11:57:02.044Z,33.12
2023-03-22T11:59:40.714Z,33.35
2023-03-22T12:02:35.892Z,33.26
2023-03-22T12:05:13.112Z,32.94
2023-03-22T12:07:52.577Z,33.32
2023-03-22T12:10:28.697Z,32.60
2023-03-22T12:12:59.653Z,31.22
2023-03-22T12:15:36.708Z,30.27
2023-03-22T12:18:12.484Z,29.67
2023-03-22T12:20:54.701Z,28.62
2023-03-22T12:23:28.076Z,28.92
2023-03-22T12:26:03.138Z,27.23
2023-03-22T12:28:53.451Z,27.38
2023-03-22T12:31:26.938Z,28.19
2023-03-22T12:33:58.100Z,27.54
2023-03-22T12:36:39.731Z,27.93
2023-03-22T12:39:13.009Z,26.81
2023-03-22T12:41:47.265Z,26.99
2023-03-22T12:44:27.596Z,26.45
2023-03-22T12:47:01.163Z,26.22
2023-03-22T12:49:41.201Z,26.64
2023-03-22T12:52:23.218Z,26.82
2023-03-22T12:54:53.474Z,27.02
2023-03-22T12:57:21.733Z,27.99
2023-03-22T12:59:53.278Z,27.20
2023-03-22T13:02:36.756Z,27.71
2023-03-22T13:05:11.803Z,28.63
2023-03-22T13:07:54.049Z,29.32
2023-03-22T13:10:42.007Z,30.28
2023-03-22T13:13:19.332Z,29.76
2023-03-22T13:16:27.458Z,29.98
2023-03-22T13:19:00.566Z,30.43
2023-03-22T13:21:32.025Z,30.44
2023-03-22T13:24:20.808Z,30.51
2023-03-22T13:26:53.086Z,31.02
2023-03-22T13:29:25.265Z,31.80
2023-03-22T13:33:01.595Z,32.32
2023-03-22T13:36:50.239Z,32.88
2023-03-22T13:40:29.872Z,33.27
2023-03-22T13:55:07.585Z,35.70
2023-03-22T14:05:13.633Z,36.71
2023-03-22T14:08:52.210Z,37.60
2023-03-22T14:20:39.494Z,40.06
